sensor_id;sensor_type;location;lat;lon;timestamp;P1;durP1;ratioP1;P2;durP2;ratioP2
20073;SDS011;10197;54.282;10.078;2022-08-01T00:01:32;14.68;;;12.98;;
20073;SDS011;10197;54.282;10.078;2022-08-01T00:04:00;20.67;;;15.82;;
20073;SDS011;10197;54.282;10.078;2022-08-01T00:06:27;19.15;;;16.58;;
20073;SDS011;10197;54.282;10.078;2022-08-01T00:08:54;16.65;;;15.05;;
20073;SDS011;10197;54.282;10.078;2022-08-01T00:11:21;20.95;;;17.08;;
20073;SDS011;10197;54.282;10.078;2022-08-01T00:13:47;20.40;;;17.15;;
20073;SDS011;10197;54.282;10.078;2022-08-01T00:16:14;22.75;;;19.75;;
20073;SDS011;10197;54.282;10.078;2022-08-01T00:18:42;21.98;;;18.15;;
20073;SDS011;10197;54.282;10.078;2022-08-01T00:21:10;19.15;;;16.98;;
20073;SDS011;10197;54.282;10.078;2022-08-01T00:23:37;24.17;;;20.65;;
20073;SDS011;10197;54.282;10.078;2022-08-01T00:26:03;24.85;;;22.13;;
20073;SDS011;10197;54.282;10.078;2022-08-01T00:28:30;23.08;;;19.05;;
20073;SDS011;10197;54.282;10.078;2022-08-01T00:30:57;22.27;;;19.35;;
20073;SDS011;10197;54.282;10.078;2022-08-01T00:33:25;20.83;;;18.58;;
20073;SDS011;10197;54.282;10.078;2022-08-01T00:35:52;23.00;;;20.40;;
20073;SDS011;10197;54.282;10.078;2022-08-01T00:38:20;18.90;;;16.83;;
20073;SDS011;10197;54.282;10.078;2022-08-01T00:40:46;23.70;;;21.25;;
20073;SDS011;10197;54.282;10.078;2022-08-01T00:43:13;24.73;;;21.25;;
20073;SDS011;10197;54.282;10.078;2022-08-01T00:45:41;21.92;;;17.98;;
20073;SDS011;10197;54.282;10.078;2022-08-01T00:48:08;16.75;;;15.10;;
20073;SDS011;10197;54.282;10.078;2022-08-01T00:50:34;21.20;;;17.80;;
20073;SDS011;10197;54.282;10.078;2022-08-01T00:53:02;18.55;;;15.38;;
20073;SDS011;10197;54.282;10.078;2022-08-01T00:55:30;15.93;;;13.80;;
20073;SDS011;10197;54.282;10.078;2022-08-01T00:57:57;18.00;;;16.10;;
20073;SDS011;10197;54.282;10.078;2022-08-01T01:00:25;21.88;;;19.33;;
20073;SDS011;10197;54.282;10.078;2022-08-01T01:02:52;21.13;;;17.45;;
20073;SDS011;10197;54.282;10.078;2022-08-01T01:05:19;26.73;;;23.33;;
20073;SDS011;10197;54.282;10.078;2022-08-01T01:07:47;24.33;;;20.52;;
20073;SDS011;10197;54.282;10.078;2022-08-01T01:10:19;26.73;;;22.98;;
20073;SDS011;10197;54.282;10.078;2022-08-01T01:12:50;29.73;;;25.20;;
20073;SDS011;10197;54.282;10.078;2022-08-01T01:15:22;31.17;;;23.95;;
20073;SDS011;10197;54.282;10.078;2022-08-01T01:17:51;30.65;;;23.27;;
20073;SDS011;10197;54.282;10.078;2022-08-01T01:20:23;36.78;;;29.13;;
20073;SDS011;10197;54.282;10.078;2022-08-01T01:23:09;36.15;;;26.45;;
20073;SDS011;10197;54.282;10.078;2022-08-01T01:25:49;33.63;;;25.80;;
20073;SDS011;10197;54.282;10.078;2022-08-01T01:28:23;30.15;;;24.65;;
20073;SDS011;10197;54.282;10.078;2022-08-01T01:30:56;27.55;;;22.25;;
20073;SDS011;10197;54.282;10.078;2022-08-01T01:33:24;25.60;;;20.15;;
20073;SDS011;10197;54.282;10.078;2022-08-01T01:35:55;32.67;;;23.42;;
20073;SDS011;10197;54.282;10.078;2022-08-01T01:38:26;27.58;;;21.80;;
20073;SDS011;10197;54.282;10.078;2022-08-01T01:40:54;29.02;;;22.85;;
20073;SDS011;10197;54.282;10.078;2022-08-01T01:43:22;26.00;;;21.30;;
20073;SDS011;10197;54.282;10.078;2022-08-01T01:45:50;31.23;;;21.88;;
20073;SDS011;10197;54.282;10.078;2022-08-01T01:48:19;31.33;;;24.42;;
20073;SDS011;10197;54.282;10.078;2022-08-01T01:50:47;30.90;;;22.65;;
20073;SDS011;10197;54.282;10.078;2022-08-01T01:53:15;25.80;;;20.83;;
20073;SDS011;10197;54.282;10.078;2022-08-01T01:55:44;31.75;;;21.40;;
20073;SDS011;10197;54.282;10.078;2022-08-01T01:58:13;29.45;;;20.70;;
20073;SDS011;10197;54.282;10.078;2022-08-01T02:00:40;25.95;;;19.50;;
20073;SDS011;10197;54.282;10.078;2022-08-01T02:03:09;24.05;;;19.67;;
20073;SDS011;10197;54.282;10.078;2022-08-01T02:05:39;30.50;;;22.83;;
20073;SDS011;10197;54.282;10.078;2022-08-01T02:08:07;26.75;;;20.17;;
20073;SDS011;10197;54.282;10.078;2022-08-01T02:10:36;22.60;;;17.50;;
20073;SDS011;10197;54.282;10.078;2022-08-01T02:13:03;22.42;;;16.67;;
20073;SDS011;10197;54.282;10.078;2022-08-01T02:15:32;20.50;;;17.45;;
20073;SDS011;10197;54.282;10.078;2022-08-01T02:18:00;19.98;;;14.48;;
20073;SDS011;10197;54.282;10.078;2022-08-01T02:20:29;26.02;;;19.17;;
20073;SDS011;10197;54.282;10.078;2022-08-01T02:23:00;28.33;;;21.00;;
20073;SDS011;10197;54.282;10.078;2022-08-01T02:25:29;31.25;;;24.13;;
20073;SDS011;10197;54.282;10.078;2022-08-01T02:28:01;24.80;;;19.38;;
20073;SDS011;10197;54.282;10.078;2022-08-01T02:30:30;18.45;;;15.98;;
20073;SDS011;10197;54.282;10.078;2022-08-01T02:33:02;26.30;;;21.98;;
20073;SDS011;10197;54.282;10.078;2022-08-01T02:35:30;22.52;;;16.13;;
20073;SDS011;10197;54.282;10.078;2022-08-01T02:38:00;23.92;;;18.60;;
20073;SDS011;10197;54.282;10.078;2022-08-01T02:40:28;21.45;;;17.40;;
20073;SDS011;10197;54.282;10.078;2022-08-01T02:42:57;18.38;;;13.82;;
20073;SDS011;10197;54.282;10.078;2022-08-01T02:45:26;15.85;;;13.27;;
20073;SDS011;10197;54.282;10.078;2022-08-01T02:47:53;27.02;;;17.75;;
20073;SDS011;10197;54.282;10.078;2022-08-01T02:50:24;23.48;;;19.40;;
20073;SDS011;10197;54.282;10.078;2022-08-01T02:52:53;24.08;;;19.33;;
20073;SDS011;10197;54.282;10.078;2022-08-01T02:55:22;24.33;;;18.40;;
20073;SDS011;10197;54.282;10.078;2022-08-01T02:57:50;28.25;;;20.13;;
20073;SDS011;10197;54.282;10.078;2022-08-01T03:00:18;24.95;;;18.85;;
20073;SDS011;10197;54.282;10.078;2022-08-01T03:02:45;20.20;;;15.65;;
20073;SDS011;10197;54.282;10.078;2022-08-01T03:05:13;22.60;;;15.85;;
20073;SDS011;10197;54.282;10.078;2022-08-01T03:07:41;29.55;;;22.88;;
20073;SDS011;10197;54.282;10.078;2022-08-01T03:10:08;26.35;;;18.13;;
20073;SDS011;10197;54.282;10.078;2022-08-01T03:12:37;15.38;;;12.30;;
20073;SDS011;10197;54.282;10.078;2022-08-01T03:15:06;25.55;;;19.15;;
20073;SDS011;10197;54.282;10.078;2022-08-01T03:17:34;24.13;;;20.13;;
20073;SDS011;10197;54.282;10.078;2022-08-01T03:20:02;24.42;;;17.35;;
20073;SDS011;10197;54.282;10.078;2022-08-01T03:22:31;20.95;;;16.48;;
20073;SDS011;10197;54.282;10.078;2022-08-01T03:24:59;15.05;;;12.32;;
20073;SDS011;10197;54.282;10.078;2022-08-01T03:27:27;25.00;;;18.00;;
20073;SDS011;10197;54.282;10.078;2022-08-01T03:29:56;25.88;;;16.80;;
20073;SDS011;10197;54.282;10.078;2022-08-01T03:32:24;21.52;;;18.05;;
20073;SDS011;10197;54.282;10.078;2022-08-01T03:34:52;21.10;;;15.27;;
20073;SDS011;10197;54.282;10.078;2022-08-01T03:37:21;19.52;;;16.05;;
20073;SDS011;10197;54.282;10.078;2022-08-01T03:39:52;15.13;;;13.43;;
20073;SDS011;10197;54.282;10.078;2022-08-01T03:42:23;15.98;;;13.25;;
20073;SDS011;10197;54.282;10.078;2022-08-01T03:44:52;18.42;;;13.48;;
20073;SDS011;10197;54.282;10.078;2022-08-01T03:47:24;16.90;;;14.50;;
20073;SDS011;10197;54.282;10.078;2022-08-01T03:49:55;18.98;;;15.38;;
20073;SDS011;10197;54.282;10.078;2022-08-01T03:52:22;19.85;;;13.50;;
20073;SDS011;10197;54.282;10.078;2022-08-01T03:54:51;16.35;;;12.65;;
20073;SDS011;10197;54.282;10.078;2022-08-01T03:57:22;19.33;;;13.50;;
20073;SDS011;10197;54.282;10.078;2022-08-01T03:59:51;16.90;;;13.70;;
20073;SDS011;10197;54.282;10.078;2022-08-01T04:02:18;14.00;;;11.98;;
20073;SDS011;10197;54.282;10.078;2022-08-01T04:04:46;10.63;;;9.52;;
20073;SDS011;10197;54.282;10.078;2022-08-01T04:07:21;13.25;;;10.43;;
20073;SDS011;10197;54.282;10.078;2022-08-01T04:09:48;12.43;;;9.32;;
20073;SDS011;10197;54.282;10.078;2022-08-01T04:12:15;10.40;;;8.48;;
20073;SDS011;10197;54.282;10.078;2022-08-01T04:14:42;13.60;;;9.02;;
20073;SDS011;10197;54.282;10.078;2022-08-01T04:17:10;10.50;;;9.18;;
20073;SDS011;10197;54.282;10.078;2022-08-01T04:19:38;10.00;;;7.28;;
20073;SDS011;10197;54.282;10.078;2022-08-01T04:22:06;8.35;;;7.40;;
20073;SDS011;10197;54.282;10.078;2022-08-01T04:24:33;10.63;;;8.80;;
20073;SDS011;10197;54.282;10.078;2022-08-01T04:27:01;11.90;;;7.65;;
20073;SDS011;10197;54.282;10.078;2022-08-01T04:29:31;10.93;;;8.00;;
20073;SDS011;10197;54.282;10.078;2022-08-01T04:31:59;9.70;;;7.80;;
20073;SDS011;10197;54.282;10.078;2022-08-01T04:34:28;10.73;;;8.70;;
20073;SDS011;10197;54.282;10.078;2022-08-01T04:36:57;10.13;;;7.95;;
20073;SDS011;10197;54.282;10.078;2022-08-01T04:39:26;11.10;;;8.07;;
20073;SDS011;10197;54.282;10.078;2022-08-01T04:41:56;10.77;;;7.68;;
20073;SDS011;10197;54.282;10.078;2022-08-01T04:44:23;8.25;;;6.72;;
20073;SDS011;10197;54.282;10.078;2022-08-01T04:46:53;8.73;;;7.53;;
20073;SDS011;10197;54.282;10.078;2022-08-01T04:49:21;9.38;;;8.35;;
20073;SDS011;10197;54.282;10.078;2022-08-01T04:51:49;13.52;;;9.45;;
20073;SDS011;10197;54.282;10.078;2022-08-01T04:54:17;11.57;;;9.38;;
20073;SDS011;10197;54.282;10.078;2022-08-01T04:56:47;8.38;;;7.43;;
20073;SDS011;10197;54.282;10.078;2022-08-01T04:59:15;11.65;;;7.85;;
20073;SDS011;10197;54.282;10.078;2022-08-01T05:01:59;10.68;;;9.25;;
20073;SDS011;10197;54.282;10.078;2022-08-01T05:04:26;12.30;;;8.77;;
20073;SDS011;10197;54.282;10.078;2022-08-01T05:06:53;14.82;;;8.40;;
20073;SDS011;10197;54.282;10.078;2022-08-01T05:09:20;12.68;;;6.63;;
20073;SDS011;10197;54.282;10.078;2022-08-01T05:11:48;14.07;;;9.57;;
20073;SDS011;10197;54.282;10.078;2022-08-01T05:14:15;11.60;;;9.63;;
20073;SDS011;10197;54.282;10.078;2022-08-01T05:16:41;11.15;;;7.65;;
20073;SDS011;10197;54.282;10.078;2022-08-01T05:19:08;9.40;;;8.45;;
20073;SDS011;10197;54.282;10.078;2022-08-01T05:21:35;11.27;;;9.80;;
20073;SDS011;10197;54.282;10.078;2022-08-01T05:24:03;10.75;;;8.18;;
20073;SDS011;10197;54.282;10.078;2022-08-01T05:26:30;11.18;;;8.73;;
20073;SDS011;10197;54.282;10.078;2022-08-01T05:28:58;10.43;;;9.07;;
20073;SDS011;10197;54.282;10.078;2022-08-01T05:31:29;13.20;;;8.32;;
20073;SDS011;10197;54.282;10.078;2022-08-01T05:34:03;8.57;;;7.65;;
20073;SDS011;10197;54.282;10.078;2022-08-01T05:36:37;9.82;;;7.35;;
20073;SDS011;10197;54.282;10.078;2022-08-01T05:39:05;10.32;;;7.43;;
20073;SDS011;10197;54.282;10.078;2022-08-01T05:41:32;9.80;;;7.63;;
20073;SDS011;10197;54.282;10.078;2022-08-01T05:44:01;8.65;;;7.00;;
20073;SDS011;10197;54.282;10.078;2022-08-01T05:46:28;12.55;;;8.27;;
20073;SDS011;10197;54.282;10.078;2022-08-01T05:48:56;15.35;;;8.48;;
20073;SDS011;10197;54.282;10.078;2022-08-01T05:51:23;11.15;;;8.27;;
20073;SDS011;10197;54.282;10.078;2022-08-01T05:54:05;10.25;;;6.95;;
20073;SDS011;10197;54.282;10.078;2022-08-01T05:56:33;9.02;;;6.93;;
20073;SDS011;10197;54.282;10.078;2022-08-01T05:59:02;8.57;;;6.80;;
20073;SDS011;10197;54.282;10.078;2022-08-01T06:01:29;10.82;;;6.72;;
20073;SDS011;10197;54.282;10.078;2022-08-01T06:03:56;11.35;;;6.03;;
20073;SDS011;10197;54.282;10.078;2022-08-01T06:06:22;9.30;;;6.70;;
20073;SDS011;10197;54.282;10.078;2022-08-01T06:08:49;7.25;;;5.85;;
20073;SDS011;10197;54.282;10.078;2022-08-01T06:11:17;14.13;;;7.85;;
20073;SDS011;10197;54.282;10.078;2022-08-01T06:13:43;9.35;;;6.25;;
20073;SDS011;10197;54.282;10.078;2022-08-01T06:16:12;15.63;;;7.43;;
20073;SDS011;10197;54.282;10.078;2022-08-01T06:18:38;11.82;;;6.78;;
20073;SDS011;10197;54.282;10.078;2022-08-01T06:21:05;9.40;;;6.20;;
20073;SDS011;10197;54.282;10.078;2022-08-01T06:23:32;9.27;;;6.10;;
20073;SDS011;10197;54.282;10.078;2022-08-01T06:25:59;9.25;;;5.68;;
20073;SDS011;10197;54.282;10.078;2022-08-01T06:28:26;5.93;;;4.97;;
20073;SDS011;10197;54.282;10.078;2022-08-01T06:30:53;6.70;;;4.78;;
20073;SDS011;10197;54.282;10.078;2022-08-01T06:33:21;6.68;;;4.70;;
20073;SDS011;10197;54.282;10.078;2022-08-01T06:35:47;6.82;;;5.28;;
20073;SDS011;10197;54.282;10.078;2022-08-01T06:38:14;6.90;;;4.15;;
20073;SDS011;10197;54.282;10.078;2022-08-01T06:40:41;6.57;;;4.07;;
20073;SDS011;10197;54.282;10.078;2022-08-01T06:43:08;5.75;;;3.47;;
20073;SDS011;10197;54.282;10.078;2022-08-01T06:45:36;8.40;;;3.50;;
20073;SDS011;10197;54.282;10.078;2022-08-01T06:48:04;6.38;;;3.40;;
20073;SDS011;10197;54.282;10.078;2022-08-01T06:50:32;7.00;;;3.70;;
20073;SDS011;10197;54.282;10.078;2022-08-01T06:53:01;7.05;;;3.72;;
20073;SDS011;10197;54.282;10.078;2022-08-01T06:55:27;7.18;;;3.63;;
20073;SDS011;10197;54.282;10.078;2022-08-01T06:57:54;9.35;;;4.13;;
20073;SDS011;10197;54.282;10.078;2022-08-01T07:00:22;8.63;;;3.63;;
20073;SDS011;10197;54.282;10.078;2022-08-01T07:02:50;11.07;;;4.35;;
20073;SDS011;10197;54.282;10.078;2022-08-01T07:05:17;6.70;;;3.92;;
20073;SDS011;10197;54.282;10.078;2022-08-01T07:07:46;9.50;;;4.47;;
20073;SDS011;10197;54.282;10.078;2022-08-01T07:10:13;10.60;;;5.30;;
20073;SDS011;10197;54.282;10.078;2022-08-01T07:12:39;7.05;;;3.90;;
20073;SDS011;10197;54.282;10.078;2022-08-01T07:15:07;11.07;;;4.75;;
20073;SDS011;10197;54.282;10.078;2022-08-01T07:17:36;8.38;;;4.53;;
20073;SDS011;10197;54.282;10.078;2022-08-01T07:20:04;12.27;;;4.63;;
20073;SDS011;10197;54.282;10.078;2022-08-01T07:22:32;9.45;;;5.43;;
20073;SDS011;10197;54.282;10.078;2022-08-01T07:25:01;8.93;;;3.92;;
20073;SDS011;10197;54.282;10.078;2022-08-01T07:27:29;9.65;;;4.50;;
20073;SDS011;10197;54.282;10.078;2022-08-01T07:29:56;13.57;;;4.47;;
20073;SDS011;10197;54.282;10.078;2022-08-01T07:32:22;8.18;;;3.60;;
20073;SDS011;10197;54.282;10.078;2022-08-01T07:34:49;11.05;;;5.22;;
20073;SDS011;10197;54.282;10.078;2022-08-01T07:37:17;17.00;;;5.20;;
20073;SDS011;10197;54.282;10.078;2022-08-01T07:39:44;11.48;;;4.72;;
20073;SDS011;10197;54.282;10.078;2022-08-01T07:42:13;14.02;;;4.18;;
20073;SDS011;10197;54.282;10.078;2022-08-01T07:44:40;7.90;;;3.78;;
20073;SDS011;10197;54.282;10.078;2022-08-01T07:47:06;7.82;;;3.80;;
20073;SDS011;10197;54.282;10.078;2022-08-01T07:49:34;11.35;;;4.32;;
20073;SDS011;10197;54.282;10.078;2022-08-01T07:52:01;9.98;;;3.88;;
20073;SDS011;10197;54.282;10.078;2022-08-01T07:54:28;7.15;;;3.40;;
20073;SDS011;10197;54.282;10.078;2022-08-01T07:56:54;11.57;;;3.20;;
20073;SDS011;10197;54.282;10.078;2022-08-01T07:59:23;10.15;;;3.30;;
20073;SDS011;10197;54.282;10.078;2022-08-01T08:01:50;7.78;;;3.03;;
20073;SDS011;10197;54.282;10.078;2022-08-01T08:04:16;9.82;;;3.13;;
20073;SDS011;10197;54.282;10.078;2022-08-01T08:06:43;15.48;;;4.13;;
20073;SDS011;10197;54.282;10.078;2022-08-01T08:09:12;9.02;;;3.28;;
20073;SDS011;10197;54.282;10.078;2022-08-01T08:11:41;10.65;;;2.70;;
20073;SDS011;10197;54.282;10.078;2022-08-01T08:14:08;11.82;;;3.20;;
20073;SDS011;10197;54.282;10.078;2022-08-01T08:16:37;7.10;;;2.88;;
20073;SDS011;10197;54.282;10.078;2022-08-01T08:19:06;6.78;;;2.70;;
20073;SDS011;10197;54.282;10.078;2022-08-01T08:21:36;13.23;;;3.22;;
20073;SDS011;10197;54.282;10.078;2022-08-01T08:24:05;10.07;;;3.40;;
20073;SDS011;10197;54.282;10.078;2022-08-01T08:26:50;10.65;;;3.33;;
20073;SDS011;10197;54.282;10.078;2022-08-01T08:29:18;11.25;;;3.90;;
20073;SDS011;10197;54.282;10.078;2022-08-01T08:31:46;10.20;;;3.30;;
20073;SDS011;10197;54.282;10.078;2022-08-01T08:34:14;13.23;;;3.60;;
20073;SDS011;10197;54.282;10.078;2022-08-01T08:36:40;10.63;;;3.40;;
20073;SDS011;10197;54.282;10.078;2022-08-01T08:39:07;20.17;;;3.90;;
20073;SDS011;10197;54.282;10.078;2022-08-01T08:41:35;16.13;;;3.90;;
20073;SDS011;10197;54.282;10.078;2022-08-01T08:44:02;9.30;;;2.90;;
20073;SDS011;10197;54.282;10.078;2022-08-01T08:46:29;11.93;;;3.70;;
20073;SDS011;10197;54.282;10.078;2022-08-01T08:49:00;16.10;;;3.78;;
20073;SDS011;10197;54.282;10.078;2022-08-01T08:51:30;11.27;;;3.33;;
20073;SDS011;10197;54.282;10.078;2022-08-01T08:53:57;15.98;;;3.85;;
20073;SDS011;10197;54.282;10.078;2022-08-01T08:56:24;10.32;;;3.92;;
20073;SDS011;10197;54.282;10.078;2022-08-01T08:58:55;12.95;;;3.30;;
20073;SDS011;10197;54.282;10.078;2022-08-01T09:01:22;10.68;;;3.75;;
20073;SDS011;10197;54.282;10.078;2022-08-01T09:03:49;11.10;;;3.55;;
20073;SDS011;10197;54.282;10.078;2022-08-01T09:06:17;13.13;;;3.55;;
20073;SDS011;10197;54.282;10.078;2022-08-01T09:08:44;9.95;;;3.13;;
20073;SDS011;10197;54.282;10.078;2022-08-01T09:11:11;9.63;;;2.85;;
20073;SDS011;10197;54.282;10.078;2022-08-01T09:13:38;12.50;;;3.65;;
20073;SDS011;10197;54.282;10.078;2022-08-01T09:16:05;12.48;;;3.30;;
20073;SDS011;10197;54.282;10.078;2022-08-01T09:18:32;11.93;;;3.47;;
20073;SDS011;10197;54.282;10.078;2022-08-01T09:21:11;12.05;;;3.47;;
20073;SDS011;10197;54.282;10.078;2022-08-01T09:23:42;10.68;;;3.25;;
20073;SDS011;10197;54.282;10.078;2022-08-01T09:26:11;11.90;;;3.17;;
20073;SDS011;10197;54.282;10.078;2022-08-01T09:28:39;10.90;;;3.08;;
20073;SDS011;10197;54.282;10.078;2022-08-01T09:31:07;8.07;;;3.00;;
20073;SDS011;10197;54.282;10.078;2022-08-01T09:33:49;11.52;;;3.05;;
20073;SDS011;10197;54.282;10.078;2022-08-01T09:36:17;12.43;;;3.08;;
20073;SDS011;10197;54.282;10.078;2022-08-01T09:38:46;11.48;;;3.05;;
20073;SDS011;10197;54.282;10.078;2022-08-01T09:41:13;15.00;;;3.10;;
20073;SDS011;10197;54.282;10.078;2022-08-01T09:43:40;14.68;;;3.60;;
20073;SDS011;10197;54.282;10.078;2022-08-01T09:46:14;11.00;;;2.80;;
20073;SDS011;10197;54.282;10.078;2022-08-01T09:48:42;9.23;;;2.75;;
20073;SDS011;10197;54.282;10.078;2022-08-01T09:51:27;7.53;;;2.95;;
20073;SDS011;10197;54.282;10.078;2022-08-01T09:53:56;10.30;;;3.05;;
20073;SDS011;10197;54.282;10.078;2022-08-01T09:56:24;12.80;;;2.67;;
20073;SDS011;10197;54.282;10.078;2022-08-01T09:58:51;11.43;;;3.00;;
20073;SDS011;10197;54.282;10.078;2022-08-01T10:01:22;10.98;;;2.97;;
20073;SDS011;10197;54.282;10.078;2022-08-01T10:04:03;10.23;;;2.50;;
20073;SDS011;10197;54.282;10.078;2022-08-01T10:06:34;10.20;;;2.92;;
20073;SDS011;10197;54.282;10.078;2022-08-01T10:09:03;7.63;;;2.55;;
20073;SDS011;10197;54.282;10.078;2022-08-01T10:11:30;11.95;;;2.42;;
20073;SDS011;10197;54.282;10.078;2022-08-01T10:13:58;8.20;;;2.10;;
20073;SDS011;10197;54.282;10.078;2022-08-01T10:16:25;8.65;;;2.55;;
20073;SDS011;10197;54.282;10.078;2022-08-01T10:18:53;8.07;;;2.75;;
20073;SDS011;10197;54.282;10.078;2022-08-01T10:21:20;7.35;;;2.40;;
20073;SDS011;10197;54.282;10.078;2022-08-01T10:23:51;6.82;;;2.17;;
20073;SDS011;10197;54.282;10.078;2022-08-01T10:26:19;7.35;;;2.15;;
20073;SDS011;10197;54.282;10.078;2022-08-01T10:28:47;9.15;;;2.63;;
20073;SDS011;10197;54.282;10.078;2022-08-01T10:31:14;5.05;;;1.95;;
20073;SDS011;10197;54.282;10.078;2022-08-01T10:33:43;10.50;;;1.80;;
20073;SDS011;10197;54.282;10.078;2022-08-01T10:36:10;8.10;;;1.83;;
20073;SDS011;10197;54.282;10.078;2022-08-01T10:38:37;11.02;;;2.72;;
20073;SDS011;10197;54.282;10.078;2022-08-01T10:41:05;6.30;;;2.05;;
20073;SDS011;10197;54.282;10.078;2022-08-01T10:43:34;5.78;;;2.30;;
20073;SDS011;10197;54.282;10.078;2022-08-01T10:46:01;9.40;;;2.30;;
20073;SDS011;10197;54.282;10.078;2022-08-01T10:48:29;10.05;;;2.33;;
20073;SDS011;10197;54.282;10.078;2022-08-01T10:51:00;9.63;;;2.50;;
20073;SDS011;10197;54.282;10.078;2022-08-01T10:53:29;9.57;;;2.33;;
20073;SDS011;10197;54.282;10.078;2022-08-01T10:55:58;7.35;;;2.30;;
20073;SDS011;10197;54.282;10.078;2022-08-01T10:58:27;8.10;;;2.38;;
20073;SDS011;10197;54.282;10.078;2022-08-01T11:06:46;8.23;;;2.20;;
20073;SDS011;10197;54.282;10.078;2022-08-01T11:09:29;7.60;;;2.25;;
20073;SDS011;10197;54.282;10.078;2022-08-01T11:11:57;7.43;;;2.78;;
20073;SDS011;10197;54.282;10.078;2022-08-01T11:14:27;6.15;;;1.83;;
20073;SDS011;10197;54.282;10.078;2022-08-01T11:16:56;9.15;;;2.20;;
20073;SDS011;10197;54.282;10.078;2022-08-01T11:19:23;11.30;;;2.22;;
20073;SDS011;10197;54.282;10.078;2022-08-01T11:21:59;5.30;;;1.90;;
20073;SDS011;10197;54.282;10.078;2022-08-01T11:27:24;7.40;;;2.83;;
20073;SDS011;10197;54.282;10.078;2022-08-01T11:32:52;8.25;;;2.40;;
20073;SDS011;10197;54.282;10.078;2022-08-01T11:35:21;11.15;;;2.60;;
20073;SDS011;10197;54.282;10.078;2022-08-01T11:37:50;6.13;;;2.05;;
20073;SDS011;10197;54.282;10.078;2022-08-01T11:40:18;4.93;;;1.75;;
20073;SDS011;10197;54.282;10.078;2022-08-01T11:42:46;6.15;;;1.83;;
20073;SDS011;10197;54.282;10.078;2022-08-01T11:45:14;7.80;;;2.30;;
20073;SDS011;10197;54.282;10.078;2022-08-01T11:47:44;9.50;;;2.30;;
20073;SDS011;10197;54.282;10.078;2022-08-01T11:53:02;8.23;;;2.40;;
20073;SDS011;10197;54.282;10.078;2022-08-01T11:55:30;5.50;;;1.90;;
20073;SDS011;10197;54.282;10.078;2022-08-01T11:57:58;9.70;;;2.47;;
20073;SDS011;10197;54.282;10.078;2022-08-01T12:00:26;11.50;;;2.72;;
20073;SDS011;10197;54.282;10.078;2022-08-01T12:02:56;8.35;;;2.08;;
20073;SDS011;10197;54.282;10.078;2022-08-01T12:05:24;6.35;;;2.10;;
20073;SDS011;10197;54.282;10.078;2022-08-01T12:07:53;7.68;;;2.30;;
20073;SDS011;10197;54.282;10.078;2022-08-01T12:10:21;7.88;;;2.50;;
20073;SDS011;10197;54.282;10.078;2022-08-01T12:12:49;6.38;;;2.00;;
20073;SDS011;10197;54.282;10.078;2022-08-01T12:15:17;6.43;;;2.00;;
20073;SDS011;10197;54.282;10.078;2022-08-01T12:17:46;6.43;;;2.20;;
20073;SDS011;10197;54.282;10.078;2022-08-01T12:20:14;11.80;;;2.40;;
20073;SDS011;10197;54.282;10.078;2022-08-01T12:22:45;6.57;;;1.90;;
20073;SDS011;10197;54.282;10.078;2022-08-01T12:25:14;4.60;;;1.77;;
20073;SDS011;10197;54.282;10.078;2022-08-01T12:27:44;5.95;;;1.70;;
20073;SDS011;10197;54.282;10.078;2022-08-01T12:30:12;10.73;;;2.40;;
20073;SDS011;10197;54.282;10.078;2022-08-01T12:32:40;7.68;;;1.88;;
20073;SDS011;10197;54.282;10.078;2022-08-01T12:35:09;5.25;;;1.70;;
20073;SDS011;10197;54.282;10.078;2022-08-01T12:37:39;8.15;;;2.30;;
20073;SDS011;10197;54.282;10.078;2022-08-01T12:40:11;6.38;;;1.98;;
20073;SDS011;10197;54.282;10.078;2022-08-01T12:42:42;5.80;;;1.92;;
20073;SDS011;10197;54.282;10.078;2022-08-01T12:45:09;6.82;;;2.20;;
20073;SDS011;10197;54.282;10.078;2022-08-01T12:47:39;6.05;;;2.13;;
20073;SDS011;10197;54.282;10.078;2022-08-01T12:50:06;7.25;;;2.00;;
20073;SDS011;10197;54.282;10.078;2022-08-01T12:52:35;6.47;;;1.52;;
20073;SDS011;10197;54.282;10.078;2022-08-01T12:55:04;5.75;;;2.10;;
20073;SDS011;10197;54.282;10.078;2022-08-01T12:57:34;5.43;;;1.80;;
20073;SDS011;10197;54.282;10.078;2022-08-01T13:02:48;7.85;;;2.20;;
20073;SDS011;10197;54.282;10.078;2022-08-01T13:05:16;6.47;;;2.00;;
20073;SDS011;10197;54.282;10.078;2022-08-01T13:07:44;8.15;;;2.00;;
20073;SDS011;10197;54.282;10.078;2022-08-01T13:10:13;3.88;;;1.85;;
20073;SDS011;10197;54.282;10.078;2022-08-01T13:12:51;6.95;;;1.90;;
20073;SDS011;10197;54.282;10.078;2022-08-01T13:15:20;6.75;;;1.88;;
20073;SDS011;10197;54.282;10.078;2022-08-01T13:18:01;5.95;;;1.65;;
20073;SDS011;10197;54.282;10.078;2022-08-01T13:20:48;7.85;;;1.75;;
20073;SDS011;10197;54.282;10.078;2022-08-01T13:23:16;7.60;;;1.80;;
20073;SDS011;10197;54.282;10.078;2022-08-01T13:25:48;4.85;;;2.10;;
20073;SDS011;10197;54.282;10.078;2022-08-01T13:28:17;7.13;;;1.75;;
20073;SDS011;10197;54.282;10.078;2022-08-01T13:30:52;7.25;;;1.90;;
20073;SDS011;10197;54.282;10.078;2022-08-01T13:33:23;7.35;;;2.50;;
20073;SDS011;10197;54.282;10.078;2022-08-01T13:35:54;6.38;;;2.28;;
20073;SDS011;10197;54.282;10.078;2022-08-01T13:38:26;5.25;;;2.10;;
20073;SDS011;10197;54.282;10.078;2022-08-01T13:41:11;5.72;;;1.80;;
20073;SDS011;10197;54.282;10.078;2022-08-01T13:43:40;8.23;;;1.95;;
20073;SDS011;10197;54.282;10.078;2022-08-01T13:46:07;6.20;;;2.00;;
20073;SDS011;10197;54.282;10.078;2022-08-01T13:48:34;8.88;;;2.42;;
20073;SDS011;10197;54.282;10.078;2022-08-01T13:51:02;5.22;;;1.88;;
20073;SDS011;10197;54.282;10.078;2022-08-01T13:53:29;6.38;;;2.58;;
20073;SDS011;10197;54.282;10.078;2022-08-01T13:55:56;6.38;;;1.92;;
20073;SDS011;10197;54.282;10.078;2022-08-01T13:58:23;10.27;;;2.72;;
20073;SDS011;10197;54.282;10.078;2022-08-01T14:00:51;6.15;;;2.20;;
20073;SDS011;10197;54.282;10.078;2022-08-01T14:03:19;9.27;;;2.33;;
20073;SDS011;10197;54.282;10.078;2022-08-01T14:05:46;9.05;;;2.17;;
20073;SDS011;10197;54.282;10.078;2022-08-01T14:08:13;7.43;;;1.83;;
20073;SDS011;10197;54.282;10.078;2022-08-01T14:10:40;6.18;;;1.90;;
20073;SDS011;10197;54.282;10.078;2022-08-01T14:13:06;4.95;;;2.00;;
20073;SDS011;10197;54.282;10.078;2022-08-01T14:15:33;9.40;;;2.10;;
20073;SDS011;10197;54.282;10.078;2022-08-01T14:18:02;7.97;;;2.45;;
20073;SDS011;10197;54.282;10.078;2022-08-01T14:20:29;4.97;;;1.95;;
20073;SDS011;10197;54.282;10.078;2022-08-01T14:22:55;8.07;;;2.03;;
20073;SDS011;10197;54.282;10.078;2022-08-01T14:25:22;7.18;;;2.08;;
20073;SDS011;10197;54.282;10.078;2022-08-01T14:27:49;4.57;;;1.85;;
20073;SDS011;10197;54.282;10.078;2022-08-01T14:30:16;7.60;;;2.10;;
20073;SDS011;10197;54.282;10.078;2022-08-01T14:32:42;7.20;;;2.15;;
20073;SDS011;10197;54.282;10.078;2022-08-01T14:35:11;7.55;;;2.10;;
20073;SDS011;10197;54.282;10.078;2022-08-01T14:37:38;7.25;;;2.00;;
20073;SDS011;10197;54.282;10.078;2022-08-01T14:40:05;8.05;;;1.92;;
20073;SDS011;10197;54.282;10.078;2022-08-01T14:42:34;4.50;;;1.67;;
20073;SDS011;10197;54.282;10.078;2022-08-01T14:45:02;6.40;;;1.85;;
20073;SDS011;10197;54.282;10.078;2022-08-01T14:47:29;5.47;;;2.22;;
20073;SDS011;10197;54.282;10.078;2022-08-01T14:49:56;7.53;;;2.05;;